Time,TemperatureF,DewpointF,PressureIn,WindDirection,WindDirectionDegrees,WindSpeedMPH,WindSpeedGustMPH,Humidity,HourlyPrecipIn,Conditions,Clouds,dailyrainin,SoftwareType,DateUTC
2013-04-09 00:02:00,68.0,59.0,30.08,ENE,74,1.0,2.0,74,0.00,,,0.00,,2013-04-09 05:02:00,
2013-04-09 00:12:00,67.0,59.0,30.07,East,90,1.0,2.0,75,0.00,,,0.00,,2013-04-09 05:12:00,
2013-04-09 00:22:00,67.0,59.0,30.07,East,90,1.0,2.0,75,0.00,,,0.00,,2013-04-09 05:22:00,
2013-04-09 00:32:00,67.0,59.0,30.07,ENE,68,1.0,2.0,76,0.00,,,0.00,,2013-04-09 05:32:00,
2013-04-09 00:43:00,66.0,59.0,30.06,SE,126,2.0,3.0,77,0.00,,,0.00,,2013-04-09 05:43:00,
2013-04-09 00:52:00,66.0,59.0,30.06,SE,126,2.0,3.0,77,0.00,,,0.00,,2013-04-09 05:52:00,
2013-04-09 01:02:00,66.0,59.0,30.06,East,90,0.0,2.0,77,0.00,,,0.00,,2013-04-09 06:02:00,
2013-04-09 01:12:00,66.0,59.0,30.06,East,90,0.0,1.0,77,0.00,,,0.00,,2013-04-09 06:12:00,
2013-04-09 01:22:00,66.0,59.0,30.06,East,90,0.0,1.0,77,0.00,,,0.00,,2013-04-09 06:22:00,
2013-04-09 01:32:00,66.0,59.0,30.04,ENE,68,1.0,3.0,78,0.00,,,0.00,,2013-04-09 06:32:00,
2013-04-09 01:42:00,66.0,59.0,30.04,ENE,68,1.0,3.0,78,0.00,,,0.00,,2013-04-09 06:42:00,
2013-04-09 01:52:00,66.0,59.0,30.04,ESE,113,1.0,3.0,79,0.00,,,0.00,,2013-04-09 06:52:00,
2013-04-09 02:02:00,65.0,58.0,30.04,ENE,78,2.0,3.0,79,0.00,,,0.00,,2013-04-09 07:02:00,
2013-04-09 02:13:00,65.0,58.0,30.04,ENE,78,2.0,3.0,79,0.00,,,0.00,,2013-04-09 07:13:00,
2013-04-09 02:22:00,65.0,59.0,30.03,ENE,78,1.0,1.0,80,0.00,,,0.00,,2013-04-09 07:22:00,
2013-04-09 02:32:00,64.0,58.0,30.02,ENE,59,1.0,1.0,81,0.00,,,0.00,,2013-04-09 07:32:00,
2013-04-09 02:42:00,64.0,58.0,30.02,ENE,59,1.0,1.0,81,0.00,,,0.00,,2013-04-09 07:42:00,
2013-04-09 02:52:00,64.0,58.0,30.02,ENE,68,0.0,1.0,80,0.00,,,0.00,,2013-04-09 07:52:00,
2013-04-09 03:03:00,63.0,57.0,30.02,ENE,68,2.0,3.0,81,0.00,,,0.00,,2013-04-09 08:03:00,
2013-04-09 03:12:00,63.0,57.0,30.02,ENE,68,2.0,3.0,81,0.00,,,0.00,,2013-04-09 08:12:00,
2013-04-09 03:22:00,63.0,57.0,30.01,ENE,71,1.0,3.0,81,0.00,,,0.00,,2013-04-09 08:22:00,
2013-04-09 03:32:00,63.0,57.0,30.02,NE,56,1.0,2.0,81,0.00,,,0.00,,2013-04-09 08:32:00,
2013-04-09 03:42:00,63.0,57.0,30.02,NE,56,1.0,2.0,81,0.00,,,0.00,,2013-04-09 08:42:00,
2013-04-09 03:52:00,62.0,56.0,30.01,ENE,75,0.0,1.0,82,0.00,,,0.00,,2013-04-09 08:52:00,
2013-04-09 04:02:00,62.0,56.0,30.01,East,93,1.0,1.0,82,0.00,,,0.00,,2013-04-09 09:02:00,
2013-04-09 04:12:00,61.0,56.0,30.02,East,90,0.0,0.0,83,0.00,,,0.00,,2013-04-09 09:12:00,
2013-04-09 04:22:00,61.0,56.0,30.02,East,90,0.0,0.0,83,0.00,,,0.00,,2013-04-09 09:22:00,
2013-04-09 04:33:00,61.0,56.0,30.02,East,90,0.0,0.0,83,0.00,,,0.00,,2013-04-09 09:33:00,
2013-04-09 04:43:00,61.0,56.0,30.02,East,90,0.0,0.0,83,0.00,,,0.00,,2013-04-09 09:43:00,
2013-04-09 04:53:00,61.0,56.0,30.02,ESE,113,0.0,1.0,83,0.00,,,0.00,,2013-04-09 09:53:00,
2013-04-09 05:03:00,61.0,56.0,30.02,ESE,113,0.0,1.0,83,0.00,,,0.00,,2013-04-09 10:03:00,
2013-04-09 05:13:00,61.0,56.0,30.02,ESE,113,0.0,1.0,83,0.00,,,0.00,,2013-04-09 10:13:00,
2013-04-09 05:23:00,61.0,56.0,30.03,ENE,68,0.0,1.0,85,0.00,,,0.00,,2013-04-09 10:23:00,
2013-04-09 05:33:00,60.0,55.0,30.03,ENE,68,1.0,1.0,85,0.00,,,0.00,,2013-04-09 10:33:00,
2013-04-09 05:43:00,60.0,55.0,30.03,ENE,68,1.0,1.0,85,0.00,,,0.00,,2013-04-09 10:43:00,
2013-04-09 05:52:00,60.0,55.0,30.03,ENE,68,1.0,1.0,85,0.00,,,0.00,,2013-04-09 10:52:00,
2013-04-09 06:02:00,61.0,56.0,30.04,ENE,68,1.0,3.0,85,0.00,,,0.00,,2013-04-09 11:02:00,
2013-04-09 06:12:00,61.0,56.0,30.04,ENE,68,1.0,3.0,85,0.00,,,0.00,,2013-04-09 11:12:00,
2013-04-09 06:22:00,61.0,56.0,30.04,ENE,68,1.0,2.0,85,0.00,,,0.00,,2013-04-09 11:22:00,
2013-04-09 06:32:00,61.0,56.0,30.04,East,83,2.0,3.0,85,0.00,,,0.00,,2013-04-09 11:32:00,
2013-04-09 06:42:00,61.0,56.0,30.04,East,83,2.0,3.0,85,0.00,,,0.00,,2013-04-09 11:42:00,
2013-04-09 06:52:00,61.0,56.0,30.04,East,90,2.0,3.0,85,0.00,,,0.00,,2013-04-09 11:52:00,
2013-04-09 07:02:00,61.0,56.0,30.05,NE,53,2.0,3.0,85,0.00,,,0.00,,2013-04-09 12:02:00,
2013-04-09 07:12:00,61.0,56.0,30.05,NE,53,2.0,3.0,85,0.00,,,0.00,,2013-04-09 12:12:00,
2013-04-09 07:22:00,62.0,57.0,30.05,ENE,68,2.0,4.0,85,0.00,,,0.00,,2013-04-09 12:22:00,
2013-04-09 07:32:00,65.0,60.0,30.06,ENE,68,2.0,4.0,85,0.00,,,0.00,,2013-04-09 12:32:00,
2013-04-09 07:42:00,65.0,60.0,30.06,ENE,68,2.0,4.0,85,0.00,,,0.00,,2013-04-09 12:42:00,
2013-04-09 07:52:00,66.0,61.0,30.06,East,79,2.0,3.0,84,0.00,,,0.00,,2013-04-09 12:52:00,
2013-04-09 08:03:00,68.0,63.0,30.06,ENE,77,3.0,4.0,83,0.00,,,0.00,,2013-04-09 13:03:00,
2013-04-09 08:12:00,68.0,63.0,30.06,ENE,77,3.0,4.0,83,0.00,,,0.00,,2013-04-09 13:12:00,
2013-04-09 08:23:00,69.0,63.0,30.07,East,79,2.0,4.0,82,0.00,,,0.00,,2013-04-09 13:23:00,
2013-04-09 08:33:00,72.0,65.0,30.07,ENE,78,4.0,5.0,79,0.00,,,0.00,,2013-04-09 13:33:00,
2013-04-09 08:43:00,72.0,65.0,30.07,ENE,78,4.0,5.0,79,0.00,,,0.00,,2013-04-09 13:43:00,
2013-04-09 08:52:00,73.0,66.0,30.07,ESE,113,3.0,5.0,79,0.00,,,0.00,,2013-04-09 13:52:00,
2013-04-09 09:03:00,76.0,68.0,30.08,ENE,76,4.0,5.0,76,0.00,,,0.00,,2013-04-09 14:03:00,
2013-04-09 09:12:00,76.0,68.0,30.08,ENE,76,4.0,5.0,76,0.00,,,0.00,,2013-04-09 14:12:00,
2013-04-09 09:22:00,77.0,68.0,30.08,SE,127,4.0,7.0,74,0.00,,,0.00,,2013-04-09 14:22:00,
2013-04-09 09:33:00,79.0,69.0,30.08,East,90,6.0,7.0,71,0.00,,,0.00,,2013-04-09 14:33:00,
2013-04-09 09:43:00,79.0,69.0,30.08,East,90,6.0,7.0,71,0.00,,,0.00,,2013-04-09 14:43:00,
2013-04-09 09:52:00,79.0,68.0,30.08,ESE,104,6.0,7.0,70,0.00,,,0.00,,2013-04-09 14:52:00,
2013-04-09 10:02:00,81.0,70.0,30.09,SE,135,5.0,8.0,69,0.00,,,0.00,,2013-04-09 15:02:00,
2013-04-09 10:13:00,81.0,70.0,30.09,SE,135,5.0,8.0,69,0.00,,,0.00,,2013-04-09 15:13:00,
2013-04-09 10:23:00,82.0,69.0,30.09,ESE,121,5.0,7.0,66,0.00,,,0.00,,2013-04-09 15:23:00,
2013-04-09 10:34:00,85.0,71.0,30.09,SSE,164,5.0,9.0,64,0.00,,,0.00,,2013-04-09 15:34:00,
2013-04-09 10:43:00,85.0,71.0,30.09,SSE,164,5.0,9.0,64,0.00,,,0.00,,2013-04-09 15:43:00,
2013-04-09 10:53:00,84.0,70.0,30.09,SE,127,5.0,7.0,63,0.00,,,0.00,,2013-04-09 15:53:00,
2013-04-09 11:03:00,86.0,69.0,30.08,SE,145,4.0,7.0,58,0.00,,,0.00,,2013-04-09 16:03:00,
2013-04-09 11:13:00,86.0,69.0,30.08,SE,145,4.0,7.0,58,0.00,,,0.00,,2013-04-09 16:13:00,
2013-04-09 11:23:00,86.0,69.0,30.08,SE,142,4.0,7.0,58,0.00,,,0.00,,2013-04-09 16:23:00,
2013-04-09 11:33:00,87.0,65.0,30.08,ESE,123,3.0,7.0,49,0.00,,,0.00,,2013-04-09 16:33:00,
2013-04-09 11:42:00,87.0,65.0,30.08,ESE,123,3.0,7.0,49,0.00,,,0.00,,2013-04-09 16:42:00,
2013-04-09 11:53:00,87.0,67.0,30.08,SE,135,3.0,6.0,52,0.00,,,0.00,,2013-04-09 16:53:00,
2013-04-09 12:02:00,88.0,68.0,30.07,SSE,158,2.0,8.0,52,0.00,,,0.00,,2013-04-09 17:02:00,
2013-04-09 12:13:00,88.0,68.0,30.07,SSE,158,2.0,8.0,52,0.00,,,0.00,,2013-04-09 17:13:00,
2013-04-09 12:23:00,88.0,68.0,30.07,SSE,158,2.0,8.0,52,0.00,,,0.00,,2013-04-09 17:23:00,
2013-04-09 12:32:00,87.0,65.0,30.07,ESE,113,3.0,3.0,49,0.00,,,0.00,,2013-04-09 17:32:00,
2013-04-09 12:42:00,87.0,65.0,30.07,ESE,113,3.0,3.0,49,0.00,,,0.00,,2013-04-09 17:42:00,
2013-04-09 12:53:00,87.0,65.0,30.07,ESE,113,3.0,3.0,49,0.00,,,0.00,,2013-04-09 17:53:00,
2013-04-09 13:00:00,90.0,68.0,30.04,SE,146,4.0,7.0,48,0.00,,,0.00,,2013-04-09 18:00:00,
2013-04-09 13:02:00,87.0,65.0,30.05,SE,129,3.0,7.0,49,0.00,,,0.00,,2013-04-09 18:02:00,
2013-04-09 13:13:00,87.0,65.0,30.05,SE,129,3.0,7.0,49,0.00,,,0.00,,2013-04-09 18:13:00,
2013-04-09 13:23:00,90.0,68.0,30.04,SE,146,4.0,7.0,48,0.00,,,0.00,,2013-04-09 18:23:00,
2013-04-09 13:33:00,90.0,68.0,30.04,SE,146,4.0,7.0,48,0.00,,,0.00,,2013-04-09 18:33:00,
2013-04-09 13:43:00,90.0,68.0,30.04,SE,146,4.0,7.0,48,0.00,,,0.00,,2013-04-09 18:43:00,
2013-04-09 13:53:00,90.0,68.0,30.04,SE,146,4.0,7.0,48,0.00,,,0.00,,2013-04-09 18:53:00,
2013-04-09 14:33:00,89.0,68.0,30.02,SSW,203,1.0,4.0,50,0.00,,,0.00,,2013-04-09 19:33:00,
2013-04-09 14:42:00,89.0,68.0,30.02,SSW,203,1.0,4.0,50,0.00,,,0.00,,2013-04-09 19:42:00,
2013-04-09 14:53:00,90.0,69.0,30.02,SSW,203,3.0,4.0,50,0.00,,,0.00,,2013-04-09 19:53:00,
2013-04-09 15:02:00,89.0,69.0,30.01,SSW,211,1.0,3.0,52,0.00,,,0.00,,2013-04-09 20:02:00,
2013-04-09 15:12:00,91.0,70.0,30.01,SSW,203,3.0,4.0,51,0.00,,,0.00,,2013-04-09 20:12:00,
2013-04-09 15:22:00,91.0,70.0,30.01,SSW,203,3.0,4.0,51,0.00,,,0.00,,2013-04-09 20:22:00,
2013-04-09 15:33:00,92.0,70.0,30.01,SSW,212,1.0,2.0,49,0.00,,,0.00,,2013-04-09 20:33:00,
2013-04-09 15:43:00,92.0,70.0,30.01,SSW,212,1.0,2.0,49,0.00,,,0.00,,2013-04-09 20:43:00,
2013-04-09 15:52:00,89.0,69.0,30.01,SSW,203,1.0,7.0,52,0.00,,,0.00,,2013-04-09 20:52:00,
2013-04-09 16:02:00,88.0,69.0,30.01,SSW,203,1.0,6.0,53,0.00,,,0.00,,2013-04-09 21:02:00,
2013-04-09 16:13:00,88.0,69.0,30.01,SSW,203,1.0,6.0,53,0.00,,,0.00,,2013-04-09 21:13:00,
2013-04-09 16:22:00,88.0,69.0,30.01,SSW,203,1.0,6.0,53,0.00,,,0.00,,2013-04-09 21:22:00,
2013-04-09 16:33:00,89.0,68.0,30.01,SSW,203,1.0,3.0,51,0.00,,,0.00,,2013-04-09 21:33:00,
2013-04-09 16:42:00,89.0,68.0,30.01,SSW,203,1.0,3.0,51,0.00,,,0.00,,2013-04-09 21:42:00,
2013-04-09 16:52:00,86.0,68.0,30.01,SW,214,2.0,3.0,55,0.00,,,0.00,,2013-04-09 21:52:00,
2013-04-09 17:03:00,86.0,69.0,30.01,SSW,203,1.0,4.0,58,0.00,,,0.00,,2013-04-09 22:03:00,
2013-04-09 17:13:00,84.0,68.0,30.01,SSW,203,1.0,2.0,59,0.00,,,0.00,,2013-04-09 22:13:00,
2013-04-09 17:23:00,84.0,68.0,30.01,SSW,203,1.0,2.0,59,0.00,,,0.00,,2013-04-09 22:23:00,
2013-04-09 17:33:00,83.0,68.0,30.01,SSW,203,1.0,1.0,61,0.00,,,0.00,,2013-04-09 22:33:00,
2013-04-09 17:42:00,83.0,68.0,30.01,SSW,203,1.0,1.0,61,0.00,,,0.00,,2013-04-09 22:42:00,
2013-04-09 17:53:00,82.0,68.0,30.01,SSW,203,0.0,1.0,62,0.00,,,0.00,,2013-04-09 22:53:00,
2013-04-09 18:03:00,83.0,69.0,30.01,SSW,203,1.0,1.0,62,0.00,,,0.00,,2013-04-09 23:03:00,
2013-04-09 18:12:00,82.0,68.0,30.01,SSW,203,1.0,1.0,63,0.00,,,0.00,,2013-04-09 23:12:00,
2013-04-09 18:23:00,82.0,68.0,30.01,SSW,203,1.0,1.0,63,0.00,,,0.00,,2013-04-09 23:23:00,
2013-04-09 18:32:00,81.0,68.0,30.01,SSW,203,0.0,2.0,64,0.00,,,0.00,,2013-04-09 23:32:00,
2013-04-09 18:42:00,81.0,68.0,30.01,SSW,203,0.0,2.0,64,0.00,,,0.00,,2013-04-09 23:42:00,
2013-04-09 18:52:00,81.0,68.0,30.01,SSW,203,0.0,0.0,64,0.00,,,0.00,,2013-04-09 23:52:00,
2013-04-09 19:03:00,81.0,68.0,30.01,SSW,203,0.0,0.0,64,0.00,,,0.00,,2013-04-10 00:03:00,
2013-04-09 19:12:00,81.0,68.0,30.01,SSW,203,0.0,0.0,64,0.00,,,0.00,,2013-04-10 00:12:00,
2013-04-09 19:23:00,79.0,67.0,30.03,SE,133,1.0,2.0,67,0.00,,,0.00,,2013-04-10 00:23:00,
2013-04-09 19:33:00,78.0,67.0,30.03,SE,126,1.0,2.0,69,0.00,,,0.00,,2013-04-10 00:33:00,
2013-04-09 19:42:00,78.0,67.0,30.03,SE,126,1.0,2.0,69,0.00,,,0.00,,2013-04-10 00:42:00,
2013-04-09 19:53:00,77.0,66.0,30.03,SE,127,3.0,5.0,68,0.00,,,0.00,,2013-04-10 00:53:00,
2013-04-09 20:02:00,77.0,66.0,30.03,SE,127,3.0,5.0,68,0.00,,,0.00,,2013-04-10 01:02:00,
2013-04-09 20:12:00,77.0,66.0,30.03,SE,127,3.0,5.0,68,0.00,,,0.00,,2013-04-10 01:12:00,
2013-04-09 20:23:00,77.0,66.0,30.03,SE,127,3.0,5.0,68,0.00,,,0.00,,2013-04-10 01:23:00,
2013-04-09 20:32:00,76.0,65.0,30.04,SE,131,3.0,5.0,69,0.00,,,0.00,,2013-04-10 01:32:00,
2013-04-09 20:43:00,76.0,65.0,30.04,SE,131,3.0,5.0,69,0.00,,,0.00,,2013-04-10 01:43:00,
2013-04-09 20:53:00,75.0,65.0,30.04,ESE,106,5.0,6.0,70,0.00,,,0.00,,2013-04-10 01:53:00,
2013-04-09 21:02:00,75.0,65.0,30.05,ESE,121,3.0,5.0,71,0.00,,,0.00,,2013-04-10 02:02:00,
2013-04-09 21:13:00,75.0,65.0,30.05,ESE,121,3.0,5.0,71,0.00,,,0.00,,2013-04-10 02:13:00,
2013-04-09 21:22:00,75.0,65.0,30.05,East,92,3.0,5.0,71,0.00,,,0.00,,2013-04-10 02:22:00,
2013-04-09 21:33:00,73.0,64.0,30.06,SE,129,3.0,4.0,74,0.00,,,0.00,,2013-04-10 02:33:00,
2013-04-09 21:43:00,73.0,64.0,30.06,SE,129,3.0,4.0,74,0.00,,,0.00,,2013-04-10 02:43:00,
2013-04-09 21:52:00,73.0,65.0,30.06,East,95,2.0,4.0,75,0.00,,,0.00,,2013-04-10 02:52:00,
2013-04-09 22:03:00,72.0,63.0,30.06,ENE,68,2.0,3.0,74,0.00,,,0.00,,2013-04-10 03:03:00,
2013-04-09 22:12:00,72.0,63.0,30.06,ENE,68,2.0,3.0,74,0.00,,,0.00,,2013-04-10 03:12:00,
2013-04-09 22:22:00,71.0,63.0,30.06,ENE,68,2.0,3.0,76,0.00,,,0.00,,2013-04-10 03:22:00,
2013-04-09 22:33:00,71.0,63.0,30.06,East,90,1.0,2.0,77,0.00,,,0.00,,2013-04-10 03:33:00,
2013-04-09 22:43:00,71.0,63.0,30.06,East,90,1.0,2.0,77,0.00,,,0.00,,2013-04-10 03:43:00,
2013-04-09 22:52:00,71.0,63.0,30.06,East,90,2.0,2.0,77,0.00,,,0.00,,2013-04-10 03:52:00,
2013-04-09 23:03:00,70.0,63.0,30.07,ENE,57,3.0,3.0,79,0.00,,,0.00,,2013-04-10 04:03:00,
2013-04-09 23:13:00,70.0,63.0,30.07,ENE,57,3.0,3.0,79,0.00,,,0.00,,2013-04-10 04:13:00,
2013-04-09 23:23:00,70.0,63.0,30.06,East,83,3.0,3.0,79,0.00,,,0.00,,2013-04-10 04:23:00,
2013-04-09 23:33:00,69.0,62.0,30.06,ENE,68,2.0,4.0,79,0.00,,,0.00,,2013-04-10 04:33:00,
2013-04-09 23:43:00,69.0,62.0,30.06,ENE,68,2.0,4.0,79,0.00,,,0.00,,2013-04-10 04:43:00,
2013-04-09 23:52:00,69.0,63.0,30.06,East,90,1.0,2.0,80,0.00,,,0.00,,2013-04-10 04:52:00,